Time;durP1;ratioP1;P1;durP2;ratioP2;P2;SDS_P1;SDS_P2;PMS_P1;PMS_P2;Temp;Humidity;BMP_temperature;BMP_pressure;BME280_temperature;BME280_humidity;BME280_pressure;Samples;Min_cycle;Max_cycle;Signal;HPM_P1;HPM_P2
2021/10/16 00:00:20;;;;;;;15.57;9.68;;;9.50;99.90;;;;;;5060060;28;20032;-83
2021/10/16 00:02:47;;;;;;;19.13;10.00;;;9.40;99.90;;;;;;5068928;28;20465;-83
2021/10/16 00:05:13;;;;;;;25.85;9.80;;;9.40;99.90;;;;;;5065942;28;20029;-74
2021/10/16 00:07:40;;;;;;;22.30;11.30;;;9.40;99.90;;;;;;5073351;28;20081;-83
2021/10/16 00:10:06;;;;;;;20.27;10.57;;;9.40;99.90;;;;;;5073257;28;20020;-83
2021/10/16 00:12:32;;;;;;;22.67;10.73;;;9.40;99.90;;;;;;5074024;28;20032;-82
2021/10/16 00:14:58;;;;;;;18.20;10.18;;;9.30;99.90;;;;;;5065145;28;20361;-77
2021/10/16 00:17:24;;;;;;;19.63;11.23;;;9.30;99.90;;;;;;5066699;28;20476;-78
2021/10/16 00:19:50;;;;;;;17.50;10.95;;;9.30;99.90;;;;;;5064527;28;20480;-83
2021/10/16 00:22:20;;;;;;;14.27;9.05;;;9.30;99.90;;;;;;5063676;28;20476;-79
2021/10/16 00:24:47;;;;;;;17.65;10.02;;;9.20;99.90;;;;;;5062958;28;20107;-81
2021/10/16 00:27:12;;;;;;;16.75;10.27;;;9.20;99.90;;;;;;5067800;28;20162;-73
2021/10/16 00:29:38;;;;;;;17.42;10.70;;;9.20;99.90;;;;;;5067982;28;20115;-75
2021/10/16 00:32:04;;;;;;;19.67;10.75;;;9.20;99.90;;;;;;5068848;28;20036;-79
2021/10/16 00:34:29;;;;;;;21.83;10.57;;;9.20;99.90;;;;;;5066748;28;20115;-80
2021/10/16 00:36:55;;;;;;;20.95;10.52;;;9.10;99.90;;;;;;5073907;28;20023;-83
2021/10/16 00:39:20;;;;;;;17.00;10.98;;;9.10;99.90;;;;;;5061221;28;20035;-79
2021/10/16 00:41:46;;;;;;;18.85;11.93;;;9.00;99.90;;;;;;5069515;28;20723;-84
2021/10/16 00:44:23;;;;;;;20.70;11.23;;;9.00;99.90;;;;;;5073686;28;20052;-73
2021/10/16 00:46:51;;;;;;;16.20;10.23;;;9.00;99.90;;;;;;5067276;28;20025;-84
2021/10/16 00:49:18;;;;;;;20.13;10.50;;;9.00;99.90;;;;;;5071692;28;20036;-81
2021/10/16 00:51:44;;;;;;;21.67;11.68;;;9.00;99.90;;;;;;5066541;28;20085;-82
2021/10/16 00:54:11;;;;;;;25.75;10.82;;;9.00;99.90;;;;;;5062462;28;20539;-81
2021/10/16 00:56:42;;;;;;;15.75;11.27;;;8.90;99.90;;;;;;5071908;28;20028;-78
2021/10/16 00:59:08;;;;;;;24.38;12.90;;;8.90;99.90;;;;;;5071755;28;20492;-83
2021/10/16 01:01:35;;;;;;;21.95;10.52;;;8.90;99.90;;;;;;5068907;28;20109;-73
2021/10/16 01:04:02;;;;;;;17.42;10.85;;;8.90;99.90;;;;;;5066842;28;20048;-82
2021/10/16 01:06:28;;;;;;;24.58;11.60;;;8.90;99.90;;;;;;5065395;28;20026;-83
2021/10/16 01:08:56;;;;;;;17.52;10.95;;;8.80;99.90;;;;;;5065263;28;20044;-74
2021/10/16 01:11:49;;;;;;;19.50;11.20;;;8.80;99.90;;;;;;5058088;28;20029;-82
2021/10/16 01:14:15;;;;;;;;;;;8.80;99.90;;;;;;5061541;28;20287;-80
2021/10/16 01:16:42;;;;;;;19.63;10.50;;;8.80;99.90;;;;;;5064589;28;20372;-81
2021/10/16 01:19:11;;;;;;;20.88;12.20;;;8.80;99.90;;;;;;5064777;28;20028;-82
2021/10/16 01:21:41;;;;;;;22.77;13.02;;;8.70;99.90;;;;;;5067920;28;20021;-81
2021/10/16 01:24:10;;;;;;;26.20;12.52;;;8.70;99.90;;;;;;5068262;28;20376;-81
2021/10/16 01:26:36;;;;;;;25.98;12.95;;;8.70;99.90;;;;;;5053320;28;20032;-82
2021/10/16 01:29:02;;;;;;;23.27;12.73;;;8.70;99.90;;;;;;5062296;28;20033;-79
2021/10/16 01:31:28;;;;;;;24.63;13.80;;;8.60;99.90;;;;;;5056311;28;20021;-81
2021/10/16 01:33:54;;;;;;;23.02;12.60;;;8.60;99.90;;;;;;5060403;28;20040;-81
2021/10/16 01:36:20;;;;;;;20.33;9.75;;;8.60;99.90;;;;;;5064887;28;20396;-81
2021/10/16 01:38:46;;;;;;;13.80;8.50;;;8.60;99.90;;;;;;5064861;28;20060;-80
2021/10/16 01:41:12;;;;;;;16.45;9.55;;;8.60;99.90;;;;;;5063880;28;20023;-75
2021/10/16 01:43:38;;;;;;;17.67;9.75;;;8.60;99.90;;;;;;5067731;28;20012;-80
2021/10/16 01:46:04;;;;;;;14.30;9.45;;;8.50;99.90;;;;;;5064336;28;20416;-78
2021/10/16 01:48:29;;;;;;;20.77;10.63;;;8.50;99.90;;;;;;5062811;28;20729;-80
2021/10/16 01:50:55;;;;;;;16.73;9.60;;;8.40;99.90;;;;;;5060789;28;20051;-81
2021/10/16 01:53:21;;;;;;;16.83;9.48;;;8.40;99.90;;;;;;5066666;28;20028;-80
2021/10/16 01:55:47;;;;;;;18.00;9.73;;;8.40;99.90;;;;;;5060693;28;20492;-80
2021/10/16 01:58:15;;;;;;;17.33;8.57;;;8.40;99.90;;;;;;5069160;28;20077;-74
2021/10/16 02:00:45;;;;;;;13.18;9.15;;;8.30;99.90;;;;;;5058648;28;20037;-81
2021/10/16 02:03:11;;;;;;;21.38;10.65;;;8.30;99.90;;;;;;5060849;28;20033;-80
2021/10/16 02:05:45;;;;;;;18.40;10.80;;;8.30;99.90;;;;;;5061383;28;20077;-80
2021/10/16 02:08:12;;;;;;;16.88;9.65;;;8.20;99.90;;;;;;5056445;28;20437;-81
2021/10/16 02:10:39;;;;;;;14.98;8.70;;;8.30;99.90;;;;;;5067109;28;20449;-81
2021/10/16 02:13:05;;;;;;;20.15;8.88;;;8.20;99.90;;;;;;5064830;28;20033;-80
2021/10/16 02:15:31;;;;;;;16.30;9.45;;;8.20;99.90;;;;;;5067031;28;20021;-80
2021/10/16 02:17:57;;;;;;;16.67;10.35;;;8.20;99.90;;;;;;5067491;28;20039;-83
2021/10/16 02:20:23;;;;;;;16.48;10.23;;;8.20;99.90;;;;;;5064191;28;20028;-82
2021/10/16 02:22:49;;;;;;;15.60;9.30;;;8.10;99.90;;;;;;5067213;28;20028;-83
2021/10/16 02:25:14;;;;;;;18.15;9.70;;;8.10;99.90;;;;;;5062653;28;20170;-81
2021/10/16 02:27:40;;;;;;;17.20;9.93;;;8.10;99.90;;;;;;5057402;28;20029;-82
2021/10/16 02:30:06;;;;;;;20.13;10.35;;;8.00;99.90;;;;;;5058980;28;20035;-82
2021/10/16 02:32:32;;;;;;;19.98;9.55;;;8.00;99.90;;;;;;5064499;28;20055;-82
2021/10/16 02:34:57;;;;;;;19.65;10.77;;;8.00;99.90;;;;;;5059489;28;20484;-79
2021/10/16 02:37:23;;;;;;;18.25;9.10;;;7.90;99.90;;;;;;5068171;28;20505;-76
2021/10/16 02:39:48;;;;;;;15.63;9.77;;;7.90;99.90;;;;;;5061104;28;20024;-80
2021/10/16 02:42:14;;;;;;;20.33;9.45;;;7.90;99.90;;;;;;5064655;28;20392;-82
2021/10/16 02:44:40;;;;;;;19.60;9.60;;;7.90;99.90;;;;;;5067833;28;20024;-82
2021/10/16 02:47:06;;;;;;;15.40;9.38;;;7.90;99.90;;;;;;5059079;28;20027;-79
2021/10/16 02:49:31;;;;;;;16.40;9.32;;;7.90;99.90;;;;;;5063637;28;20752;-82
2021/10/16 02:51:57;;;;;;;12.75;8.60;;;7.90;99.90;;;;;;5058744;28;20021;-81
2021/10/16 02:54:23;;;;;;;16.55;9.30;;;7.90;99.90;;;;;;5063286;28;20512;-81
2021/10/16 02:56:48;;;;;;;18.00;9.00;;;7.90;99.90;;;;;;5064650;28;20070;-80
2021/10/16 02:59:15;;;;;;;19.85;9.07;;;7.80;99.90;;;;;;5062531;28;20038;-80
2021/10/16 03:01:40;;;;;;;20.65;9.88;;;7.80;99.90;;;;;;5064236;28;20028;-81
2021/10/16 03:04:06;;;;;;;15.32;9.60;;;7.80;99.90;;;;;;5060789;28;20099;-81
2021/10/16 03:06:32;;;;;;;22.05;10.02;;;7.70;99.90;;;;;;5063789;28;20033;-81
2021/10/16 03:08:58;;;;;;;15.98;10.45;;;7.70;99.90;;;;;;5057670;28;20079;-81
2021/10/16 03:11:23;;;;;;;19.70;10.75;;;7.60;99.90;;;;;;5062223;28;20396;-82
2021/10/16 03:13:49;;;;;;;22.33;10.73;;;7.60;99.90;;;;;;5063085;28;20123;-81
2021/10/16 03:16:16;;;;;;;22.15;10.02;;;7.60;99.90;;;;;;5064452;28;20045;-81
2021/10/16 03:18:43;;;;;;;26.27;11.27;;;7.50;99.90;;;;;;5061355;28;20021;-82
2021/10/16 03:21:09;;;;;;;18.75;10.50;;;7.50;99.90;;;;;;5064873;28;20491;-80
2021/10/16 03:23:34;;;;;;;18.52;10.50;;;7.40;99.90;;;;;;5059432;28;20024;-84
2021/10/16 03:26:00;;;;;;;17.30;10.50;;;7.50;99.90;;;;;;5058848;28;20029;-82
2021/10/16 03:28:26;;;;;;;15.38;9.65;;;7.50;99.90;;;;;;5062572;28;20442;-81
2021/10/16 03:30:51;;;;;;;16.92;10.38;;;7.50;99.90;;;;;;5061957;28;20047;-81
2021/10/16 03:33:17;;;;;;;15.05;9.68;;;7.50;99.90;;;;;;5061104;28;20033;-80
2021/10/16 03:35:43;;;;;;;16.80;10.20;;;7.50;99.90;;;;;;5062409;28;20086;-81
2021/10/16 03:38:08;;;;;;;17.15;10.38;;;7.50;99.90;;;;;;5061664;28;20371;-79
2021/10/16 03:40:34;;;;;;;20.65;10.13;;;7.50;99.90;;;;;;5069332;28;20025;-81
2021/10/16 03:43:00;;;;;;;14.15;10.05;;;7.50;99.90;;;;;;5070809;28;20498;-80
2021/10/16 03:45:25;;;;;;;19.60;11.00;;;7.50;99.90;;;;;;5063062;28;20017;-81
2021/10/16 03:47:51;;;;;;;18.15;10.43;;;7.50;99.90;;;;;;5060831;28;20488;-81
2021/10/16 03:50:17;;;;;;;18.40;11.40;;;7.50;99.90;;;;;;5065092;28;20032;-80
2021/10/16 03:52:43;;;;;;;19.00;10.70;;;7.40;99.90;;;;;;5067980;28;20024;-79
2021/10/16 03:55:09;;;;;;;20.73;11.73;;;7.40;99.90;;;;;;5071814;28;20039;-81
2021/10/16 03:57:34;;;;;;;20.73;11.63;;;7.40;99.90;;;;;;5057681;28;20029;-80
2021/10/16 04:00:00;;;;;;;23.33;11.40;;;7.40;99.90;;;;;;5066322;28;20060;-81
2021/10/16 04:02:27;;;;;;;13.63;10.00;;;7.40;99.90;;;;;;5074794;28;20398;-81
2021/10/16 04:04:53;;;;;;;19.02;10.00;;;7.40;99.90;;;;;;5064830;28;20025;-78
2021/10/16 04:07:19;;;;;;;15.50;9.70;;;7.40;99.90;;;;;;5064582;28;20103;-81
2021/10/16 04:09:45;;;;;;;19.83;10.52;;;7.40;99.90;;;;;;5069675;28;20112;-81
2021/10/16 04:12:11;;;;;;;19.85;10.55;;;7.40;99.90;;;;;;5067049;28;20028;-81
2021/10/16 04:14:37;;;;;;;15.95;9.30;;;7.40;99.90;;;;;;5069711;28;20051;-79
2021/10/16 04:17:03;;;;;;;20.42;10.82;;;7.30;99.90;;;;;;5069712;28;20028;-81
2021/10/16 04:19:29;;;;;;;17.50;9.55;;;7.40;99.90;;;;;;5064855;28;20025;-81
2021/10/16 04:21:55;;;;;;;18.63;9.00;;;7.30;99.90;;;;;;5062525;28;20537;-81
2021/10/16 04:24:21;;;;;;;14.65;8.10;;;7.30;99.90;;;;;;5066759;28;20029;-81
2021/10/16 04:26:47;;;;;;;19.77;10.07;;;7.30;99.90;;;;;;5065740;28;20029;-81
2021/10/16 04:29:13;;;;;;;19.17;9.25;;;7.20;99.90;;;;;;5065436;28;20084;-78
2021/10/16 04:31:39;;;;;;;18.10;9.43;;;7.20;99.90;;;;;;5060219;28;20025;-81
2021/10/16 04:34:06;;;;;;;14.52;9.20;;;7.20;99.90;;;;;;5056291;28;20379;-81
2021/10/16 04:36:35;;;;;;;20.45;10.20;;;7.20;99.90;;;;;;5068036;28;20016;-81
2021/10/16 04:39:00;;;;;;;19.67;9.75;;;7.10;99.90;;;;;;5065305;28;20029;-81
2021/10/16 04:41:27;;;;;;;13.57;9.18;;;7.10;99.90;;;;;;5063313;28;20029;-80
2021/10/16 04:43:53;;;;;;;16.77;9.55;;;7.10;99.90;;;;;;5065606;28;20025;-81
2021/10/16 04:46:23;;;;;;;18.63;10.70;;;7.10;99.90;;;;;;5060909;28;20032;-81
2021/10/16 04:48:49;;;;;;;20.02;10.52;;;7.00;99.90;;;;;;5068300;28;20016;-81
2021/10/16 04:51:15;;;;;;;22.50;11.65;;;6.90;99.90;;;;;;5066377;28;20035;-78
2021/10/16 04:53:41;;;;;;;15.30;9.10;;;6.90;99.90;;;;;;5063114;28;20499;-77
2021/10/16 04:56:07;;;;;;;18.73;9.93;;;6.90;99.90;;;;;;5064221;28;20428;-81
2021/10/16 04:58:33;;;;;;;17.67;9.95;;;6.90;99.90;;;;;;5062490;28;20111;-81
2021/10/16 05:00:58;;;;;;;13.75;9.93;;;6.90;99.90;;;;;;5070015;28;20146;-80
2021/10/16 05:03:24;;;;;;;17.00;9.15;;;6.90;99.90;;;;;;5057903;28;20095;-81
2021/10/16 05:05:53;;;;;;;20.67;9.40;;;6.90;99.90;;;;;;5064929;28;20031;-81
2021/10/16 05:08:19;;;;;;;18.35;10.88;;;6.90;99.90;;;;;;5063492;28;20036;-81
2021/10/16 05:10:44;;;;;;;21.60;10.88;;;6.80;99.90;;;;;;5063228;28;20385;-79
2021/10/16 05:13:10;;;;;;;19.10;10.40;;;6.70;99.90;;;;;;5067723;28;20524;-80
2021/10/16 05:15:36;;;;;;;18.02;10.10;;;6.70;99.90;;;;;;5063114;28;20060;-77
2021/10/16 05:18:01;;;;;;;26.52;14.93;;;6.80;99.90;;;;;;5063939;28;20016;-81
2021/10/16 05:20:27;;;;;;;30.27;16.65;;;6.80;99.90;;;;;;5064891;28;20562;-79
2021/10/16 05:22:53;;;;;;;62.35;29.05;;;6.70;99.90;;;;;;5060784;28;20107;-78
2021/10/16 05:25:19;;;;;;;28.17;16.60;;;6.70;99.90;;;;;;5066845;28;20028;-81
2021/10/16 05:27:49;;;;;;;20.42;11.10;;;6.70;99.90;;;;;;5060638;28;20029;-81
2021/10/16 05:30:15;;;;;;;17.05;10.15;;;6.80;99.90;;;;;;5060741;28;20071;-81
2021/10/16 05:32:40;;;;;;;21.45;10.68;;;6.80;99.90;;;;;;5065486;28;20104;-81
2021/10/16 05:35:07;;;;;;;21.52;10.93;;;6.80;99.90;;;;;;5060393;28;20111;-81
2021/10/16 05:37:32;;;;;;;20.33;10.43;;;6.80;99.90;;;;;;5070590;28;20029;-80
2021/10/16 05:39:58;;;;;;;17.90;10.15;;;6.80;99.90;;;;;;5066213;28;20078;-80
2021/10/16 05:42:24;;;;;;;13.38;9.02;;;6.80;99.90;;;;;;5063272;28;20377;-79
2021/10/16 05:44:49;;;;;;;19.60;9.80;;;6.80;99.90;;;;;;5067611;28;20469;-81
2021/10/16 05:47:16;;;;;;;28.88;13.52;;;6.80;99.90;;;;;;5059329;28;20039;-80
2021/10/16 05:49:42;;;;;;;32.13;16.58;;;6.80;99.90;;;;;;5061997;28;20020;-77
2021/10/16 05:52:07;;;;;;;52.35;22.45;;;6.80;99.90;;;;;;5057509;28;20040;-81
2021/10/16 05:54:33;;;;;;;27.63;14.40;;;6.80;99.90;;;;;;5068567;28;20052;-80
2021/10/16 05:56:59;;;;;;;44.95;20.85;;;6.80;99.90;;;;;;5063513;28;20021;-81
2021/10/16 05:59:24;;;;;;;83.45;34.53;;;6.80;99.90;;;;;;5061666;28;20032;-80
2021/10/16 06:01:50;;;;;;;40.85;17.58;;;6.70;99.90;;;;;;5062123;28;20025;-81
2021/10/16 06:04:16;;;;;;;65.25;30.00;;;6.70;99.90;;;;;;5068936;28;20488;-80
2021/10/16 06:06:42;;;;;;;31.40;14.32;;;6.70;99.90;;;;;;5062662;28;20161;-80
2021/10/16 06:09:08;;;;;;;43.03;19.05;;;6.70;99.90;;;;;;5062133;28;20089;-80
2021/10/16 06:11:33;;;;;;;31.30;15.55;;;6.70;99.90;;;;;;5067830;28;20021;-80
2021/10/16 06:13:59;;;;;;;35.78;18.90;;;6.70;99.90;;;;;;5064203;28;20479;-81
2021/10/16 06:16:25;;;;;;;29.85;15.55;;;6.70;99.90;;;;;;5063614;28;20103;-81
2021/10/16 06:18:50;;;;;;;26.60;12.85;;;6.60;99.90;;;;;;5063426;28;20021;-81
2021/10/16 06:21:16;;;;;;;24.20;12.48;;;6.70;99.90;;;;;;5057564;28;20362;-77
2021/10/16 06:23:42;;;;;;;23.08;11.80;;;6.60;99.90;;;;;;5066151;28;20503;-80
2021/10/16 06:26:08;;;;;;;27.75;13.82;;;6.60;99.90;;;;;;5059105;28;20036;-81
2021/10/16 06:28:35;;;;;;;21.83;12.07;;;6.60;99.90;;;;;;5061739;28;20107;-81
2021/10/16 06:31:00;;;;;;;19.88;10.82;;;6.70;99.90;;;;;;5058663;28;20029;-78
2021/10/16 06:33:26;;;;;;;27.83;15.20;;;6.70;99.90;;;;;;5062851;28;20493;-79
2021/10/16 06:35:53;;;;;;;36.55;16.35;;;6.70;99.90;;;;;;5055638;28;20037;-79
2021/10/16 06:38:19;;;;;;;30.73;16.83;;;6.70;99.90;;;;;;5066101;28;20024;-80
2021/10/16 06:40:45;;;;;;;27.10;13.20;;;6.70;99.90;;;;;;5059346;28;20057;-80
2021/10/16 06:43:11;;;;;;;27.08;11.30;;;6.60;99.90;;;;;;5065364;28;20052;-79
2021/10/16 06:45:37;;;;;;;23.13;10.77;;;6.60;99.90;;;;;;5064888;28;20458;-80
2021/10/16 06:48:03;;;;;;;30.85;10.32;;;6.60;99.90;;;;;;5063610;28;20023;-80
2021/10/16 06:50:28;;;;;;;13.68;9.02;;;6.60;99.90;;;;;;5067997;28;20036;-81
2021/10/16 06:52:54;;;;;;;19.10;9.43;;;6.70;99.90;;;;;;5062058;28;20365;-81
2021/10/16 06:55:19;;;;;;;17.90;10.07;;;6.80;99.90;;;;;;5067760;28;20044;-80
2021/10/16 06:57:45;;;;;;;18.95;9.20;;;6.80;99.90;;;;;;5062047;28;20027;-81
2021/10/16 07:00:12;;;;;;;16.30;8.43;;;6.80;99.90;;;;;;5066736;28;20037;-80
2021/10/16 07:02:38;;;;;;;28.60;9.73;;;6.80;99.90;;;;;;5065115;28;20024;-80
2021/10/16 07:05:04;;;;;;;27.83;11.48;;;6.90;99.90;;;;;;5060745;28;20028;-78
2021/10/16 07:07:29;;;;;;;18.30;9.32;;;6.90;99.90;;;;;;5069145;28;20044;-78
2021/10/16 07:09:56;;;;;;;21.27;10.35;;;6.90;99.90;;;;;;5061662;28;20477;-80
2021/10/16 07:12:23;;;;;;;29.25;11.38;;;7.00;99.90;;;;;;5063748;28;20020;-77
2021/10/16 07:14:48;;;;;;;20.52;10.13;;;7.10;99.90;;;;;;5065800;28;20511;-81
2021/10/16 07:17:14;;;;;;;24.23;10.93;;;7.10;99.90;;;;;;5063051;28;20024;-76
2021/10/16 07:19:40;;;;;;;21.92;10.60;;;7.20;99.90;;;;;;5056416;28;20446;-83
2021/10/16 07:22:06;;;;;;;24.95;10.45;;;7.10;99.90;;;;;;5059747;28;20029;-79
2021/10/16 07:24:32;;;;;;;22.50;10.48;;;7.20;99.90;;;;;;5058480;28;20042;-79
2021/10/16 07:26:57;;;;;;;20.05;11.55;;;7.20;99.90;;;;;;5058776;28;20116;-82
2021/10/16 07:29:23;;;;;;;22.35;9.98;;;7.30;99.90;;;;;;5060929;28;20056;-80
2021/10/16 07:31:50;;;;;;;22.15;12.32;;;7.40;99.90;;;;;;5059119;28;20115;-79
2021/10/16 07:34:16;;;;;;;20.83;11.82;;;7.40;99.90;;;;;;5060889;28;20493;-78
2021/10/16 07:36:42;;;;;;;24.85;12.00;;;7.50;99.90;;;;;;5063356;28;20067;-80
2021/10/16 07:39:09;;;;;;;31.27;16.50;;;7.60;99.90;;;;;;5068947;28;20503;-80
2021/10/16 07:41:36;;;;;;;26.83;13.52;;;7.60;99.90;;;;;;5067344;28;20025;-78
2021/10/16 07:44:04;;;;;;;71.32;34.47;;;7.70;99.90;;;;;;5061918;28;20115;-80
2021/10/16 07:46:29;;;;;;;70.60;35.65;;;7.70;99.90;;;;;;5068511;28;20028;-79
2021/10/16 07:48:55;;;;;;;53.05;25.67;;;7.70;99.90;;;;;;5063938;28;20028;-87
2021/10/16 07:51:21;;;;;;;39.13;19.73;;;7.70;99.90;;;;;;5061743;28;20094;-84
2021/10/16 07:53:46;;;;;;;31.17;17.75;;;7.80;99.90;;;;;;5071502;28;20036;-82
2021/10/16 07:56:12;;;;;;;29.10;16.13;;;7.90;99.90;;;;;;5065286;28;20024;-84
2021/10/16 07:58:41;;;;;;;31.23;18.05;;;8.00;99.90;;;;;;5069310;28;20020;-84
2021/10/16 08:01:08;;;;;;;41.67;19.08;;;8.10;99.90;;;;;;5059990;28;20496;-83
2021/10/16 08:03:37;;;;;;;40.97;20.73;;;8.30;99.90;;;;;;5064381;28;20096;-86
2021/10/16 08:06:03;;;;;;;49.90;22.45;;;8.40;99.90;;;;;;5060328;28;20261;-78
2021/10/16 08:08:29;;;;;;;37.65;18.05;;;8.40;99.90;;;;;;5062315;28;20059;-78
2021/10/16 08:10:55;;;;;;;36.72;16.13;;;8.40;99.90;;;;;;5057554;28;20064;-75
2021/10/16 08:13:21;;;;;;;31.25;14.55;;;8.50;99.90;;;;;;5060974;28;20036;-79
2021/10/16 08:15:47;;;;;;;35.25;18.00;;;8.60;99.90;;;;;;5064969;28;20039;-78
2021/10/16 08:18:13;;;;;;;31.67;13.65;;;8.70;99.90;;;;;;5067950;28;20086;-78
2021/10/16 08:20:39;;;;;;;27.42;15.35;;;8.90;99.90;;;;;;5060793;28;20036;-79
2021/10/16 08:23:05;;;;;;;32.92;16.15;;;9.00;99.90;;;;;;5059300;28;20025;-79
2021/10/16 08:25:32;;;;;;;39.55;16.73;;;9.10;99.90;;;;;;5063351;28;20532;-85
2021/10/16 08:27:58;;;;;;;41.95;18.10;;;9.30;99.90;;;;;;5065088;28;20044;-83
2021/10/16 08:30:25;;;;;;;29.63;15.40;;;9.40;99.90;;;;;;5059416;28;20078;-84
2021/10/16 08:32:51;;;;;;;29.83;14.73;;;9.60;99.90;;;;;;5066887;28;20021;-82
2021/10/16 08:35:17;;;;;;;36.58;13.98;;;9.70;99.90;;;;;;5060998;28;20578;-82
2021/10/16 08:37:42;;;;;;;26.70;12.73;;;9.90;99.90;;;;;;5062525;28;20029;-83
2021/10/16 08:40:08;;;;;;;23.17;11.60;;;10.00;99.90;;;;;;5062838;28;20463;-82
2021/10/16 08:42:35;;;;;;;30.25;12.52;;;10.10;99.90;;;;;;5061636;28;20029;-86
2021/10/16 08:45:03;;;;;;;23.00;12.18;;;10.30;99.90;;;;;;5064228;28;20111;-86
2021/10/16 08:47:33;;;;;;;26.67;11.68;;;10.40;99.90;;;;;;5069133;28;20373;-86
2021/10/16 08:50:00;;;;;;;21.55;8.77;;;10.60;99.90;;;;;;5064534;28;20028;-86
2021/10/16 08:52:26;;;;;;;25.80;8.95;;;10.70;99.90;;;;;;5069593;28;20029;-85
2021/10/16 08:54:53;;;;;;;31.70;10.10;;;10.90;99.90;;;;;;5068159;28;20042;-86
2021/10/16 08:57:20;;;;;;;27.50;9.93;;;11.00;99.90;;;;;;5060376;28;20032;-85
2021/10/16 08:59:46;;;;;;;26.67;8.27;;;11.20;99.90;;;;;;5062282;28;20033;-86
2021/10/16 09:02:12;;;;;;;16.50;6.97;;;11.30;99.90;;;;;;5062182;28;20052;-83
2021/10/16 09:04:38;;;;;;;17.25;6.30;;;11.40;99.90;;;;;;5064631;28;20493;-86
2021/10/16 09:07:24;;;;;;;24.00;7.25;;;11.50;99.90;;;;;;5061353;28;20058;-83
2021/10/16 09:09:51;;;;;;;20.90;5.57;;;11.60;99.90;;;;;;5059861;28;21977;-83
2021/10/16 09:12:17;;;;;;;21.35;6.05;;;11.70;99.90;;;;;;5056672;28;20025;-83
2021/10/16 09:14:50;;;;;;;21.77;5.10;;;11.70;99.90;;;;;;5063991;28;20032;-82
2021/10/16 09:17:17;;;;;;;19.33;6.40;;;11.90;99.90;;;;;;5058239;28;20112;-82
2021/10/16 09:19:44;;;;;;;18.48;5.75;;;12.00;99.90;;;;;;5070949;28;20029;-81
2021/10/16 09:22:17;;;;;;;18.55;5.18;;;12.20;99.90;;;;;;5060857;28;20072;-82
2021/10/16 09:24:45;;;;;;;20.98;5.90;;;12.40;99.90;;;;;;5066579;28;20032;-84
2021/10/16 09:27:16;;;;;;;22.67;5.75;;;12.50;99.90;;;;;;5062537;28;20116;-85
2021/10/16 09:29:49;;;;;;;26.98;7.72;;;12.60;99.90;;;;;;5061161;28;20060;-85
2021/10/16 09:32:21;;;;;;;19.90;5.40;;;12.70;99.90;;;;;;5062620;28;20052;-85
2021/10/16 09:34:48;;;;;;;11.95;4.25;;;12.80;99.90;;;;;;5072241;28;20393;-86
2021/10/16 09:37:14;;;;;;;19.17;4.15;;;12.90;99.90;;;;;;5060650;28;20024;-85
2021/10/16 09:39:49;;;;;;;14.02;3.30;;;13.00;99.90;;;;;;5062438;28;20039;-84
2021/10/16 09:42:45;;;;;;;15.13;4.05;;;13.20;99.90;;;;;;5062488;28;20472;-86
2021/10/16 09:45:15;;;;;;;24.95;4.65;;;13.30;99.90;;;;;;5058031;28;20031;-87
2021/10/16 09:47:54;;;;;;;14.82;4.00;;;13.30;99.90;;;;;;5057280;28;20027;-85
2021/10/16 09:50:20;;;;;;;17.98;3.78;;;13.60;99.90;;;;;;5062754;28;20038;-87
2021/10/16 09:52:50;;;;;;;14.98;3.90;;;13.70;99.90;;;;;;5061330;28;20556;-85
2021/10/16 09:55:18;;;;;;;16.55;3.95;;;13.80;99.90;;;;;;5058672;28;20115;-87
2021/10/16 09:57:45;;;;;;;8.73;3.13;;;14.00;99.90;;;;;;5060592;28;20033;-87
2021/10/16 10:00:13;;;;;;;9.10;3.20;;;14.10;99.90;;;;;;5059625;28;20048;-82
2021/10/16 10:02:39;;;;;;;18.20;3.45;;;14.10;99.90;;;;;;5062191;28;20484;-82
2021/10/16 10:05:08;;;;;;;15.13;3.17;;;14.10;99.90;;;;;;5065628;28;20109;-81
2021/10/16 10:07:35;;;;;;;12.05;2.58;;;14.20;99.90;;;;;;5061589;28;20028;-82
2021/10/16 10:10:02;;;;;;;10.00;2.55;;;14.30;99.90;;;;;;5068342;28;20419;-82
2021/10/16 10:12:28;;;;;;;14.48;3.05;;;14.20;99.90;;;;;;5057751;28;20028;-80
2021/10/16 10:14:55;;;;;;;11.90;2.63;;;14.30;99.90;;;;;;5060059;28;20078;-82
2021/10/16 10:17:32;;;;;;;14.88;3.15;;;14.40;99.90;;;;;;5054400;28;20033;-81
2021/10/16 10:20:13;;;;;;;11.32;2.78;;;14.30;99.90;;;;;;5054315;28;20025;-82
2021/10/16 10:22:44;;;;;;;8.55;2.33;;;14.40;99.90;;;;;;5057155;28;20020;-82
2021/10/16 10:25:24;;;;;;;14.65;2.60;;;14.60;99.90;;;;;;5058144;28;20027;-81
2021/10/16 10:27:51;;;;;;;11.20;2.50;;;14.80;99.90;;;;;;5061867;28;20919;-81
2021/10/16 10:30:41;;;;;;;7.75;2.22;;;14.80;99.90;;;;;;5061290;28;20028;-81
2021/10/16 10:33:16;;;;;;;11.18;2.35;;;14.80;99.90;;;;;;5059191;28;20033;-81
2021/10/16 10:36:00;;;;;;;12.25;2.42;;;14.70;99.90;;;;;;5065435;28;20021;-81
2021/10/16 10:38:30;;;;;;;8.90;1.92;;;14.60;99.90;;;;;;5058298;28;20130;-81
2021/10/16 10:40:56;;;;;;;8.95;2.60;;;14.60;99.90;;;;;;5060915;28;20083;-82
2021/10/16 10:43:38;;;;;;;8.45;1.98;;;14.50;99.90;;;;;;5058324;28;20037;-82
2021/10/16 10:46:08;;;;;;;6.73;2.53;;;14.40;99.90;;;;;;5060164;28;20024;-81
2021/10/16 10:48:47;;;;;;;14.10;3.35;;;14.50;99.90;;;;;;5061005;28;20713;-81
2021/10/16 10:51:37;;;;;;;11.32;2.40;;;14.60;99.90;;;;;;5048453;28;20033;-81
2021/10/16 10:54:11;;;;;;;8.93;2.22;;;14.70;99.90;;;;;;5062274;28;20041;-81
2021/10/16 10:56:42;;;;;;;8.50;1.88;;;14.70;99.90;;;;;;5068353;28;20062;-80
2021/10/16 10:59:09;;;;;;;8.25;1.80;;;14.70;99.90;;;;;;5063455;28;20123;-81
2021/10/16 11:01:50;;;;;;;10.38;2.30;;;14.70;99.90;;;;;;5063419;28;20056;-80
2021/10/16 11:04:38;;;;;;;7.55;2.22;;;14.50;99.90;;;;;;5059112;28;20024;-81
2021/10/16 11:07:10;;;;;;;7.40;1.98;;;14.50;99.90;;;;;;5063295;28;20060;-80
2021/10/16 11:09:35;;;;;;;10.10;2.35;;;14.40;99.90;;;;;;5067004;28;20074;-81
2021/10/16 11:12:01;;;;;;;9.73;2.50;;;14.20;99.90;;;;;;5066250;28;20481;-81
2021/10/16 11:14:36;;;;;;;5.65;2.05;;;14.10;99.90;;;;;;5069980;28;20504;-80
2021/10/16 11:17:14;;;;;;;9.07;2.92;;;14.20;99.90;;;;;;5070141;28;20104;-81
2021/10/16 11:19:53;;;;;;;8.65;2.95;;;14.20;99.90;;;;;;5064332;28;20021;-81
2021/10/16 11:22:21;;;;;;;9.15;3.75;;;14.10;99.90;;;;;;5062931;28;20176;-81
2021/10/16 11:24:47;;;;;;;6.32;2.58;;;14.10;99.90;;;;;;5062766;28;20565;-81
2021/10/16 11:27:19;;;;;;;10.38;2.10;;;14.10;99.90;;;;;;5068352;28;20033;-81
2021/10/16 11:29:45;;;;;;;95.40;11.95;;;14.10;99.90;;;;;;5065197;28;20043;-80
2021/10/16 11:32:14;;;;;;;18.33;3.08;;;14.10;99.90;;;;;;5068962;28;20029;-81
2021/10/16 11:34:53;;;;;;;8.10;1.92;;;14.20;99.90;;;;;;5063949;28;20037;-82
2021/10/16 11:37:39;;;;;;;7.78;2.40;;;14.20;99.90;;;;;;5068208;28;20069;-81
2021/10/16 11:40:10;;;;;;;9.57;2.30;;;14.00;99.90;;;;;;5072977;28;20489;-80
2021/10/16 11:42:37;;;;;;;13.20;2.28;;;14.00;99.90;;;;;;5070252;28;20033;-81
2021/10/16 11:45:10;;;;;;;12.48;2.88;;;14.10;99.90;;;;;;5063858;28;20176;-81
2021/10/16 11:47:36;;;;;;;7.35;2.03;;;14.10;99.90;;;;;;5066245;28;20029;-82
2021/10/16 11:50:10;;;;;;;13.45;2.75;;;14.10;99.90;;;;;;5076440;28;20660;-81
2021/10/16 11:52:36;;;;;;;10.75;2.30;;;14.10;99.90;;;;;;5070552;28;20017;-82
2021/10/16 11:55:14;;;;;;;9.15;2.95;;;14.20;99.90;;;;;;5063540;28;20055;-80
2021/10/16 11:57:41;;;;;;;11.93;3.05;;;14.20;99.90;;;;;;5066733;28;20503;-81
2021/10/16 12:00:23;;;;;;;11.15;3.05;;;14.10;99.90;;;;;;5071314;28;20040;-82
2021/10/16 12:02:50;;;;;;;11.57;2.92;;;14.10;99.90;;;;;;5073390;28;20028;-82
2021/10/16 12:05:18;;;;;;;5.97;2.33;;;14.20;99.90;;;;;;5064454;28;20032;-82
2021/10/16 12:07:48;;;;;;;9.90;2.30;;;14.20;99.90;;;;;;5062167;28;20025;-82
2021/10/16 12:10:26;;;;;;;8.68;2.88;;;14.40;99.90;;;;;;5068671;28;20032;-81
2021/10/16 12:13:01;;;;;;;10.27;2.88;;;14.40;99.90;;;;;;5058498;28;20537;-82
2021/10/16 12:15:47;;;;;;;8.70;3.15;;;14.50;99.90;;;;;;5063925;28;20392;-82
2021/10/16 12:18:24;;;;;;;14.55;3.63;;;14.50;99.90;;;;;;5067967;28;20056;-81
2021/10/16 12:20:54;;;;;;;9.10;2.78;;;14.40;99.90;;;;;;5056024;28;20119;-82
2021/10/16 12:23:21;;;;;;;7.05;2.30;;;14.40;99.90;;;;;;5064238;28;20034;-82
2021/10/16 12:25:55;;;;;;;4.30;1.52;;;14.40;99.90;;;;;;5069877;28;20047;-82
2021/10/16 12:28:23;;;;;;;6.03;1.70;;;14.30;99.90;;;;;;5056181;28;20029;-82
2021/10/16 12:31:07;;;;;;;8.20;2.42;;;14.30;99.90;;;;;;5064938;28;20473;-82
2021/10/16 12:34:03;;;;;;;8.93;2.60;;;14.10;99.90;;;;;;5069682;28;20051;-82
2021/10/16 12:36:48;;;;;;;9.40;1.88;;;14.20;99.90;;;;;;5062959;28;20029;-80
2021/10/16 12:39:21;;;;;;;7.85;2.00;;;14.20;99.90;;;;;;5070355;28;20036;-82
2021/10/16 12:41:47;;;;;;;10.70;2.42;;;14.30;99.90;;;;;;5075357;28;20025;-81
2021/10/16 12:44:26;;;;;;;7.68;1.92;;;14.40;99.90;;;;;;5059080;28;20546;-82